COOK73 UHPP-PAFS
Flight info
| Callsign | COOK73 |
|---|---|
| Flight time | N/A |
| Altitude | 35000 |
| Route | TUPAN4L TUPAN B244 UK T564 RUSOR/N0449F350 B241 ROCET R338 OME Q44 HLBLY |
| Aircraft | C25C/M-SDE2E3FGHRWXY/LB1 |
Departure
| Time | 2026-04-17 20:24 |
|---|---|
| Airport | Yelizovo Airport (UHPP) |
Arrival
| Time | N/A |
|---|---|
| Airport | Nikolai Airport (PAFS) |
| Time | Latitude | Longitude | Altitude | Speed | Heading |
|---|---|---|---|---|---|
| 2026-04-17 19:54 | 53.17334 | 158.44314 | 123 ft | 0 kts | 249° |
| 2026-04-17 20:14 | 53.17343 | 158.44350 | 119 ft | 6 kts | 249° |
| 2026-04-17 20:14 | 53.17353 | 158.44396 | 121 ft | 0 kts | 249° |
| 2026-04-17 20:15 | 53.17346 | 158.44378 | 120 ft | 5 kts | 218° |
| 2026-04-17 20:15 | 53.17303 | 158.44421 | 122 ft | 13 kts | 156° |
| 2026-04-17 20:15 | 53.17199 | 158.44495 | 123 ft | 17 kts | 157° |
| 2026-04-17 20:16 | 53.17084 | 158.44573 | 123 ft | 18 kts | 159° |
| 2026-04-17 20:16 | 53.16974 | 158.44651 | 122 ft | 17 kts | 156° |
| 2026-04-17 20:16 | 53.16869 | 158.44728 | 123 ft | 16 kts | 156° |
| 2026-04-17 20:16 | 53.16769 | 158.44795 | 123 ft | 15 kts | 158° |
| 2026-04-17 20:17 | 53.16675 | 158.44859 | 122 ft | 14 kts | 158° |
| 2026-04-17 20:17 | 53.16585 | 158.44920 | 122 ft | 14 kts | 158° |
| 2026-04-17 20:17 | 53.16501 | 158.44977 | 121 ft | 13 kts | 157° |
| 2026-04-17 20:17 | 53.16420 | 158.45034 | 120 ft | 12 kts | 157° |
| 2026-04-17 20:18 | 53.16342 | 158.45088 | 121 ft | 12 kts | 157° |
| 2026-04-17 20:18 | 53.16267 | 158.45140 | 121 ft | 11 kts | 157° |
| 2026-04-17 20:18 | 53.16196 | 158.45190 | 121 ft | 11 kts | 157° |
| 2026-04-17 20:18 | 53.16127 | 158.45238 | 122 ft | 11 kts | 157° |
| 2026-04-17 20:19 | 53.16061 | 158.45283 | 120 ft | 10 kts | 158° |
| 2026-04-17 20:19 | 53.15997 | 158.45327 | 122 ft | 10 kts | 157° |
| 2026-04-17 20:19 | 53.15936 | 158.45369 | 122 ft | 9 kts | 158° |
| 2026-04-17 20:19 | 53.15878 | 158.45411 | 123 ft | 9 kts | 157° |
| 2026-04-17 20:20 | 53.15822 | 158.45449 | 122 ft | 9 kts | 157° |
| 2026-04-17 20:20 | 53.15767 | 158.45486 | 122 ft | 8 kts | 158° |
| 2026-04-17 20:20 | 53.15713 | 158.45522 | 121 ft | 8 kts | 158° |
| 2026-04-17 20:20 | 53.15660 | 158.45558 | 123 ft | 8 kts | 158° |
| 2026-04-17 20:21 | 53.15607 | 158.45593 | 122 ft | 8 kts | 158° |
| 2026-04-17 20:21 | 53.15555 | 158.45629 | 121 ft | 8 kts | 156° |
| 2026-04-17 20:21 | 53.15503 | 158.45667 | 122 ft | 8 kts | 151° |
| 2026-04-17 20:21 | 53.15477 | 158.45742 | 123 ft | 8 kts | 81° |
| 2026-04-17 20:22 | 53.15495 | 158.45823 | 123 ft | 7 kts | 67° |
| 2026-04-17 20:22 | 53.15504 | 158.45859 | 120 ft | 0 kts | 67° |
| 2026-04-17 20:23 | 53.15525 | 158.45940 | 123 ft | 13 kts | 66° |
| 2026-04-17 20:23 | 53.15585 | 158.45989 | 123 ft | 11 kts | 338° |
| 2026-04-17 20:23 | 53.15763 | 158.45866 | 124 ft | 60 kts | 337° |
| 2026-04-17 20:24 | 53.16389 | 158.45434 | 229 ft | 123 kts | 338° |
| 2026-04-17 20:24 | 53.17203 | 158.44868 | 819 ft | 138 kts | 337° |
| 2026-04-17 20:24 | 53.18178 | 158.44210 | 1254 ft | 165 kts | 337° |
| 2026-04-17 20:24 | 53.19316 | 158.43411 | 1981 ft | 189 kts | 337° |
| 2026-04-17 20:25 | 53.20539 | 158.42559 | 3137 ft | 190 kts | 335° |
| 2026-04-17 20:25 | 53.21770 | 158.41709 | 4271 ft | 194 kts | 336° |
| 2026-04-17 20:25 | 53.23026 | 158.40841 | 5463 ft | 197 kts | 336° |
| 2026-04-17 20:25 | 53.24306 | 158.39946 | 6619 ft | 202 kts | 336° |
| 2026-04-17 20:26 | 53.25619 | 158.39035 | 7691 ft | 207 kts | 336° |
| 2026-04-17 20:26 | 53.26941 | 158.38116 | 8767 ft | 211 kts | 335° |
| 2026-04-17 20:26 | 53.28310 | 158.37163 | 9883 ft | 215 kts | 335° |
| 2026-04-17 20:26 | 53.29697 | 158.36193 | 10979 ft | 217 kts | 335° |
| 2026-04-17 20:27 | 53.31093 | 158.35223 | 12096 ft | 218 kts | 334° |
| 2026-04-17 20:27 | 53.32504 | 158.34238 | 13178 ft | 221 kts | 334° |
| 2026-04-17 20:27 | 53.33931 | 158.33239 | 14168 ft | 223 kts | 334° |
| 2026-04-17 20:27 | 53.35382 | 158.32269 | 15064 ft | 227 kts | 339° |
| 2026-04-17 20:28 | 53.36988 | 158.32192 | 15956 ft | 239 kts | 5° |
| 2026-04-17 20:28 | 53.38531 | 158.33365 | 16849 ft | 254 kts | 33° |
| 2026-04-17 20:28 | 53.39675 | 158.35708 | 17738 ft | 267 kts | 53° |
| 2026-04-17 20:28 | 53.40626 | 158.38364 | 18554 ft | 272 kts | 54° |
| 2026-04-17 20:29 | 53.41583 | 158.41136 | 19381 ft | 277 kts | 54° |
| 2026-04-17 20:29 | 53.42575 | 158.43927 | 20225 ft | 281 kts | 53° |
| 2026-04-17 20:29 | 53.43587 | 158.46747 | 21071 ft | 284 kts | 53° |
| 2026-04-17 20:29 | 53.44612 | 158.49614 | 21864 ft | 289 kts | 53° |
| 2026-04-17 20:30 | 53.46701 | 158.55493 | 23373 ft | 298 kts | 53° |
| 2026-04-17 20:30 | 53.47767 | 158.58495 | 24008 ft | 301 kts | 53° |
| 2026-04-17 20:30 | 53.48827 | 158.61484 | 24623 ft | 304 kts | 53° |
| 2026-04-17 20:31 | 53.49913 | 158.64552 | 25216 ft | 307 kts | 53° |
| 2026-04-17 20:31 | 53.51008 | 158.67643 | 25804 ft | 309 kts | 53° |
| 2026-04-17 20:31 | 53.52111 | 158.70764 | 26412 ft | 312 kts | 53° |
| 2026-04-17 20:31 | 53.53224 | 158.73922 | 26999 ft | 316 kts | 53° |
| 2026-04-17 20:32 | 53.54347 | 158.77106 | 27583 ft | 318 kts | 53° |
| 2026-04-17 20:32 | 53.55481 | 158.80327 | 28152 ft | 322 kts | 53° |
| 2026-04-17 20:32 | 53.56620 | 158.83571 | 28794 ft | 321 kts | 53° |
| 2026-04-17 20:32 | 53.57738 | 158.86761 | 29453 ft | 321 kts | 52° |
| 2026-04-17 20:33 | 53.58872 | 158.89993 | 30071 ft | 320 kts | 53° |
| 2026-04-17 20:33 | 53.60004 | 158.93221 | 30585 ft | 320 kts | 53° |
| 2026-04-17 20:33 | 53.61133 | 158.96454 | 31094 ft | 320 kts | 53° |
| 2026-04-17 20:33 | 53.62262 | 158.99684 | 31624 ft | 320 kts | 53° |
| 2026-04-17 20:34 | 53.63466 | 159.02812 | 32116 ft | 316 kts | 45° |
| 2026-04-17 20:34 | 53.64936 | 159.05524 | 32638 ft | 311 kts | 36° |
| 2026-04-17 20:34 | 53.66604 | 159.07794 | 33135 ft | 308 kts | 31° |
| 2026-04-17 20:34 | 53.68302 | 159.10009 | 33627 ft | 309 kts | 32° |
| 2026-04-17 20:35 | 53.69977 | 159.12203 | 34073 ft | 309 kts | 32° |
| 2026-04-17 20:35 | 53.71677 | 159.14422 | 34459 ft | 310 kts | 32° |
| 2026-04-17 20:35 | 53.73385 | 159.16655 | 34780 ft | 313 kts | 32° |
| 2026-04-17 20:35 | 53.75144 | 159.18952 | 34872 ft | 326 kts | 33° |
| 2026-04-17 20:36 | 53.76972 | 159.21342 | 34890 ft | 340 kts | 33° |
| 2026-04-17 20:36 | 53.78876 | 159.23845 | 34905 ft | 354 kts | 33° |
| 2026-04-17 20:36 | 53.80856 | 159.26451 | 34909 ft | 367 kts | 34° |
| 2026-04-17 20:36 | 53.82908 | 159.29149 | 34907 ft | 380 kts | 34° |
| 2026-04-17 20:37 | 53.84996 | 159.31901 | 34911 ft | 391 kts | 34° |
| 2026-04-17 20:37 | 53.87168 | 159.34768 | 34911 ft | 401 kts | 34° |
| 2026-04-17 20:37 | 53.91675 | 159.40727 | 34910 ft | 419 kts | 34° |
| 2026-04-17 20:38 | 53.96353 | 159.46930 | 34908 ft | 433 kts | 34° |
| 2026-04-17 20:38 | 54.01167 | 159.53331 | 34914 ft | 445 kts | 35° |
| 2026-04-17 20:39 | 54.06052 | 159.59842 | 34912 ft | 453 kts | 35° |
| 2026-04-17 20:39 | 54.11052 | 159.66531 | 34914 ft | 460 kts | 35° |
| 2026-04-17 20:40 | 54.16109 | 159.73319 | 34918 ft | 465 kts | 35° |
| 2026-04-17 20:40 | 54.20324 | 159.78996 | 34917 ft | 459 kts | 35° |
| 2026-04-17 20:41 | 54.26120 | 159.86791 | 34920 ft | 453 kts | 35° |
| 2026-04-17 20:41 | 54.31056 | 159.93447 | 34922 ft | 451 kts | 35° |
| 2026-04-17 20:42 | 54.35963 | 160.00084 | 34922 ft | 448 kts | 35° |
| 2026-04-17 20:42 | 54.40843 | 160.06701 | 34925 ft | 446 kts | 35° |
| 2026-04-17 20:43 | 54.44883 | 160.12201 | 34925 ft | 445 kts | 36° |
| 2026-04-17 20:43 | 54.49723 | 160.18803 | 34924 ft | 444 kts | 36° |
| 2026-04-17 20:44 | 54.55333 | 160.26489 | 34929 ft | 443 kts | 36° |
| 2026-04-17 20:44 | 54.59337 | 160.31985 | 34926 ft | 443 kts | 36° |
| 2026-04-17 20:45 | 54.64144 | 160.38609 | 34928 ft | 442 kts | 36° |
| 2026-04-17 20:45 | 54.68940 | 160.45233 | 34928 ft | 441 kts | 36° |
| 2026-04-17 20:46 | 54.73732 | 160.51873 | 34930 ft | 441 kts | 36° |
| 2026-04-17 20:46 | 54.78516 | 160.58524 | 34932 ft | 441 kts | 36° |
| 2026-04-17 20:47 | 54.83258 | 160.65136 | 34929 ft | 441 kts | 36° |
| 2026-04-17 20:47 | 54.88032 | 160.71817 | 34928 ft | 441 kts | 37° |
| 2026-04-17 20:48 | 54.92804 | 160.78515 | 34937 ft | 441 kts | 37° |
| 2026-04-17 20:48 | 54.97569 | 160.85220 | 34932 ft | 441 kts | 37° |
| 2026-04-17 20:49 | 55.02300 | 160.91896 | 34938 ft | 441 kts | 37° |
| 2026-04-17 20:49 | 55.07064 | 160.98641 | 34940 ft | 441 kts | 37° |
| 2026-04-17 20:50 | 55.11824 | 161.05406 | 34942 ft | 441 kts | 37° |
| 2026-04-17 20:50 | 55.16582 | 161.12189 | 34947 ft | 441 kts | 37° |
| 2026-04-17 20:51 | 55.21303 | 161.18938 | 34952 ft | 441 kts | 37° |
| 2026-04-17 20:51 | 55.26052 | 161.25748 | 34955 ft | 441 kts | 37° |
| 2026-04-17 20:52 | 55.30797 | 161.32574 | 34955 ft | 441 kts | 37° |
| 2026-04-17 20:52 | 55.35536 | 161.39412 | 34960 ft | 441 kts | 38° |
| 2026-04-17 20:53 | 55.40270 | 161.46268 | 34966 ft | 441 kts | 38° |
| 2026-04-17 20:53 | 55.44968 | 161.53094 | 34963 ft | 441 kts | 38° |
| 2026-04-17 20:54 | 55.49693 | 161.59982 | 34962 ft | 441 kts | 38° |
| 2026-04-17 20:54 | 55.54418 | 161.66889 | 34964 ft | 441 kts | 38° |
| 2026-04-17 20:55 | 55.59140 | 161.73813 | 34968 ft | 441 kts | 38° |
| 2026-04-17 20:55 | 55.63857 | 161.80752 | 34970 ft | 441 kts | 38° |
| 2026-04-17 20:56 | 55.68533 | 161.87655 | 34967 ft | 440 kts | 38° |
| 2026-04-17 20:56 | 55.73233 | 161.94617 | 34969 ft | 440 kts | 38° |
| 2026-04-17 20:57 | 55.77921 | 162.01585 | 34969 ft | 439 kts | 39° |
| 2026-04-17 20:57 | 55.82573 | 162.08519 | 34969 ft | 439 kts | 39° |
| 2026-04-17 20:58 | 55.87243 | 162.15501 | 34972 ft | 438 kts | 39° |
| 2026-04-17 20:58 | 55.91900 | 162.22486 | 34973 ft | 438 kts | 39° |
| 2026-04-17 20:59 | 55.96551 | 162.29485 | 34974 ft | 437 kts | 39° |
| 2026-04-17 20:59 | 56.01163 | 162.36451 | 34973 ft | 437 kts | 39° |
| 2026-04-17 21:00 | 56.05800 | 162.43477 | 34975 ft | 437 kts | 39° |
| 2026-04-17 21:00 | 56.10431 | 162.50516 | 34975 ft | 437 kts | 39° |
| 2026-04-17 21:01 | 56.15061 | 162.57574 | 34974 ft | 437 kts | 39° |
| 2026-04-17 21:01 | 56.19690 | 162.64652 | 34977 ft | 437 kts | 40° |
| 2026-04-17 21:02 | 56.23820 | 162.72542 | 34972 ft | 439 kts | 54° |
| 2026-04-17 21:02 | 56.27263 | 162.81602 | 34973 ft | 439 kts | 55° |
| 2026-04-17 21:03 | 56.30715 | 162.90667 | 34969 ft | 439 kts | 55° |
| 2026-04-17 21:03 | 56.34153 | 162.99765 | 34973 ft | 439 kts | 55° |
| 2026-04-17 21:04 | 56.37591 | 163.08879 | 34980 ft | 440 kts | 56° |
| 2026-04-17 21:04 | 56.40997 | 163.17952 | 34980 ft | 440 kts | 56° |
| 2026-04-17 21:05 | 56.44424 | 163.27110 | 34979 ft | 440 kts | 56° |
| 2026-04-17 21:05 | 56.47844 | 163.36289 | 34977 ft | 440 kts | 56° |
| 2026-04-17 21:06 | 56.51256 | 163.45478 | 34981 ft | 440 kts | 56° |
| 2026-04-17 21:06 | 56.54663 | 163.54683 | 34980 ft | 440 kts | 56° |
| 2026-04-17 21:07 | 56.58037 | 163.63841 | 34982 ft | 439 kts | 57° |
| 2026-04-17 21:07 | 56.61426 | 163.73073 | 34977 ft | 439 kts | 57° |
| 2026-04-17 21:08 | 56.64806 | 163.82313 | 34980 ft | 439 kts | 57° |
| 2026-04-17 21:08 | 56.68180 | 163.91569 | 34979 ft | 439 kts | 57° |
| 2026-04-17 21:09 | 56.71525 | 164.00774 | 34978 ft | 439 kts | 57° |
| 2026-04-17 21:09 | 56.74881 | 164.10050 | 34978 ft | 439 kts | 57° |
| 2026-04-17 21:10 | 56.78232 | 164.19344 | 34980 ft | 439 kts | 57° |
| 2026-04-17 21:10 | 56.81576 | 164.28655 | 34979 ft | 439 kts | 57° |
| 2026-04-17 21:11 | 56.84890 | 164.37916 | 34975 ft | 439 kts | 58° |
| 2026-04-17 21:11 | 56.88220 | 164.47262 | 34974 ft | 439 kts | 58° |
| 2026-04-17 21:12 | 56.91544 | 164.56624 | 34973 ft | 439 kts | 58° |
| 2026-04-17 21:12 | 56.94860 | 164.66004 | 34973 ft | 439 kts | 58° |
| 2026-04-17 21:13 | 56.98169 | 164.75397 | 34978 ft | 439 kts | 58° |
| 2026-04-17 21:13 | 57.01451 | 164.84753 | 34975 ft | 439 kts | 58° |
| 2026-04-17 21:14 | 57.04750 | 164.94190 | 34975 ft | 439 kts | 59° |
| 2026-04-17 21:14 | 57.08040 | 165.03639 | 34974 ft | 439 kts | 59° |
| 2026-04-17 21:15 | 57.11324 | 165.13111 | 34973 ft | 439 kts | 59° |
| 2026-04-17 21:15 | 57.14580 | 165.22537 | 34972 ft | 439 kts | 59° |
| 2026-04-17 21:16 | 57.17850 | 165.32044 | 34971 ft | 439 kts | 59° |
| 2026-04-17 21:16 | 57.21113 | 165.41564 | 34971 ft | 439 kts | 59° |
| 2026-04-17 21:17 | 57.24371 | 165.51108 | 34968 ft | 439 kts | 59° |
| 2026-04-17 21:17 | 57.27621 | 165.60671 | 34971 ft | 439 kts | 60° |
| 2026-04-17 21:18 | 57.30842 | 165.70184 | 34969 ft | 440 kts | 59° |
| 2026-04-17 21:18 | 57.34080 | 165.79784 | 34971 ft | 440 kts | 60° |
| 2026-04-17 21:19 | 57.37311 | 165.89404 | 34967 ft | 440 kts | 60° |
| 2026-04-17 21:19 | 57.40536 | 165.99043 | 34969 ft | 440 kts | 60° |
| 2026-04-17 21:20 | 57.43753 | 166.08696 | 34970 ft | 440 kts | 60° |
| 2026-04-17 21:20 | 57.46941 | 166.18310 | 34970 ft | 440 kts | 60° |
| 2026-04-17 21:21 | 57.50147 | 166.28003 | 34973 ft | 440 kts | 60° |
| 2026-04-17 21:21 | 57.53341 | 166.37713 | 34972 ft | 440 kts | 60° |
| 2026-04-17 21:22 | 57.56533 | 166.47446 | 34973 ft | 440 kts | 60° |
| 2026-04-17 21:22 | 57.59718 | 166.57202 | 34972 ft | 441 kts | 60° |
| 2026-04-17 21:23 | 57.62875 | 166.66913 | 34974 ft | 441 kts | 62° |
| 2026-04-17 21:23 | 57.66046 | 166.76704 | 34973 ft | 441 kts | 61° |
| 2026-04-17 21:24 | 57.69212 | 166.86524 | 34971 ft | 441 kts | 62° |
| 2026-04-17 21:24 | 57.72372 | 166.96364 | 34973 ft | 441 kts | 61° |
| 2026-04-17 21:25 | 57.75502 | 167.06153 | 34968 ft | 442 kts | 61° |
| 2026-04-17 21:25 | 57.78650 | 167.16035 | 34975 ft | 442 kts | 62° |
| 2026-04-17 21:26 | 57.81790 | 167.25939 | 34980 ft | 442 kts | 62° |
| 2026-04-17 21:26 | 57.84925 | 167.35863 | 34974 ft | 442 kts | 62° |
| 2026-04-17 21:27 | 57.88029 | 167.45738 | 34980 ft | 442 kts | 62° |
| 2026-04-17 21:27 | 57.91151 | 167.55704 | 34978 ft | 442 kts | 62° |
| 2026-04-17 21:28 | 57.94265 | 167.65693 | 34976 ft | 443 kts | 62° |
| 2026-04-17 21:28 | 57.97373 | 167.75698 | 34980 ft | 443 kts | 63° |
| 2026-04-17 21:29 | 58.00474 | 167.85733 | 34982 ft | 443 kts | 63° |
| 2026-04-17 21:29 | 58.03550 | 167.95719 | 34982 ft | 443 kts | 63° |
| 2026-04-17 21:30 | 58.06640 | 168.05797 | 34983 ft | 444 kts | 63° |
| 2026-04-17 21:30 | 58.09723 | 168.15892 | 34984 ft | 444 kts | 63° |
| 2026-04-17 21:31 | 58.12801 | 168.26017 | 34984 ft | 444 kts | 63° |
| 2026-04-17 21:31 | 58.15852 | 168.36094 | 34983 ft | 444 kts | 63° |
| 2026-04-17 21:32 | 58.18919 | 168.46274 | 34988 ft | 445 kts | 63° |
| 2026-04-17 21:32 | 58.21979 | 168.56467 | 34985 ft | 445 kts | 63° |
| 2026-04-17 21:33 | 58.25033 | 168.66692 | 34985 ft | 445 kts | 63° |
| 2026-04-17 21:33 | 58.28060 | 168.76869 | 34983 ft | 446 kts | 63° |
| 2026-04-17 21:34 | 58.31103 | 168.87146 | 34986 ft | 446 kts | 64° |